• Join FlightAware (Why Join?)
  • Login
  • US Flag 
06:07PM EDT


 

Airport Tracker/Info


-or-


 

Live Flight TrackerFlight Track Log ✈ AAY817 ✈ 09-May-2014 ✈ KHTS - KPIE

Flight Track Log - Related Links

Times and Time Zones

All times are in EDT time to prevent confusion due to time zone crossing. See the AAY817 flight status page for this flight to view local times or setup timezone preferences in your user account.

Time Position Orientation Groundspeed Altitude Reporting Facility
EDT Latitude Longitude Course Direction KTS MPH feet Rate Location/Type
03:24PM 38.4028 -82.6061 180° South 179 206 3,000  Level Indianapolis Center
03:25PM 38.4281 -82.5336 66° East 246 283 4,400 2,100 Climbing Indianapolis Center
03:26PM 38.4183 -82.4286 97° East 276 318 7,400 2,580 Climbing Indianapolis Center
03:27PM 38.4064 -82.3192 98° East 300 345 9,800 1,980 Climbing Indianapolis Center
03:28PM 38.3922 -82.1989 99° East 335 386 11,500 2,220 Climbing Indianapolis Center
03:29PM 38.2681 -81.7667 180° South  Level FlightAware Approximate
03:29PM 38.3108 -82.1519 156° South 335 386 14,500  Level Indianapolis Center
03:30PM 38.2192 -82.1569 182° South 333 383 16,800 1,860 Climbing Indianapolis Center
03:31PM 38.1231 -82.1631 183° South 341 392 18,400 1,500 Climbing Indianapolis Center
03:32PM 38.0069 -82.1706 183° South 360 414 20,000 1,500 Climbing Indianapolis Center
03:33PM 37.9017 -82.1767 183° South 372 428 21,600 1,380 Climbing Indianapolis Center
03:34PM 37.7933 -82.1839 183° South 382 440 22,900 1,260 Climbing Indianapolis Center
03:35PM 37.6822 -82.1900 182° South 392 451 24,300 1,440 Climbing Indianapolis Center
03:36PM 37.5486 -82.1972 182° South 403 464 25,900 1,380 Climbing Indianapolis Center
03:37PM 37.4325 -82.2044 183° South 411 473 27,200 1,200 Climbing Indianapolis Center
03:38PM 37.3161 -82.2106 182° South 413 475 28,500 1,080 Climbing Indianapolis Center
03:39PM 37.1964 -82.2167 182° South 421 484 29,500 960 Climbing Indianapolis Center
03:40PM 37.0753 -82.2231 182° South 426 490 30,500 1,020 Climbing Indianapolis Center
03:41PM 36.9533 -82.2294 182° South 431 496 31,700 1,320 Climbing Indianapolis Center
03:42PM 36.8131 -82.2367 182° South 431 496 33,300 1,200 Climbing Indianapolis Center
03:43PM 36.6925 -82.2436 183° South 431 496 34,200 720 Climbing Indianapolis Center
03:44PM 36.5714 -82.2497 182° South 431 496 34,900 720 Climbing Indianapolis Center
03:45PM 36.5103 -82.2539 183° South 442 509 35,400 780 Climbing Atlanta Center
03:46PM 36.3769 -82.2594 182° South 442 509 36,100 660 Climbing Atlanta Center
03:47PM 36.2561 -82.2672 183° South 442 509 36,800 600 Climbing Atlanta Center
03:48PM 36.1353 -82.2750 183° South 442 509 37,400 600 Climbing Atlanta Center
03:49PM 36.0122 -82.2803 182° South 442 509 38,000 300 Climbing Atlanta Center
03:50PM 35.8914 -82.2856 182° South 442 509 38,000  Level Atlanta Center
03:51PM 35.7706 -82.2958 184° South 437 503 38,000  Level Atlanta Center
03:52PM 35.6497 -82.3033 183° South 437 503 38,000  Level Atlanta Center
03:53PM 35.5267 -82.3086 182° South 437 503 38,000  Level Atlanta Center
03:54PM 35.4036 -82.3164 183° South 443 510 38,000  Level Atlanta Center
03:57PM 34.6913 -82.3489 182° South 435 501 38,000  Level FlightAware ADS-B (KDZJ)
03:58PM 34.6233 -82.3523 182° South 434 499 38,000  Level FlightAware ADS-B (KDZJ)
03:58PM 34.5624 -82.3554 182° South 434 499 38,000  Level FlightAware ADS-B (KDZJ)
04:01PM 34.5127 -82.3579 182° South 442 509 38,000  Level FlightAware ADS-B (KCDN)
04:05PM 34.0350 -82.3821 182° South 442 509 38,000  Level FlightAware ADS-B (KCDN)
04:06PM 33.9635 -82.3857 182° South 442 509 38,000  Level FlightAware ADS-B (KCDN)
04:07PM 33.8208 -82.3886 182° South 443 510 38,000  Level Atlanta Center
04:08PM 33.6747 -82.3964 183° South 457 526 38,000  Level Atlanta Center
04:09PM 33.5517 -82.4061 184° South 462 532 38,000  Level Atlanta Center
04:10PM 33.4308 -82.4133 183° South 452 520 38,000  Level Atlanta Center
04:11PM 33.3036 -82.4208 183° South 452 520 38,000  Level Atlanta Center
04:12PM 33.1806 -82.4256 182° South 452 520 38,000  Level Atlanta Center
04:13PM 33.0531 -82.4303 182° South 457 526 38,000  Level Atlanta Center
04:14PM 32.9300 -82.4375 183° South 457 526 38,000  Level Atlanta Center
04:15PM 32.8008 -82.4450 183° South 457 526 38,000  Level Atlanta Center
04:16PM 32.6778 -82.4494 182° South 457 526 38,000  Level Atlanta Center
04:18PM 32.4267 -82.4594 182° South 479 551 38,000  Level Jacksonville Center
04:19PM 32.3014 -82.4675 183° South 465 535 38,000  Level Jacksonville Center
04:20PM 32.1764 -82.4728 182° South 458 527 38,000  Level Jacksonville Center
04:21PM 32.0511 -82.4808 183° South 458 527 38,000  Level Jacksonville Center
04:22PM 31.9217 -82.4839 181° South 458 527 38,000  Level Jacksonville Center
04:23PM 31.7858 -82.4917 183° South 458 527 38,000  Level Jacksonville Center
04:24PM 31.6586 -82.4972 182° South 458 527 38,000  Level Jacksonville Center
04:25PM 31.5333 -82.4881 176° South 458 527 38,000  Level Jacksonville Center
04:26PM 31.4058 -82.4786 176° South 458 527 38,000  Level Jacksonville Center
04:27PM 31.2911 -82.4769 179° South 458 527 38,000  Level Jacksonville Center
04:33PM 30.5704 -82.4238 177° South 467 537 38,000  Level FlightAware ADS-B (KMCO)
04:33PM 30.4479 -82.4158 177° South 469 540 38,000  Level FlightAware ADS-B (KMCO)
04:34PM 30.3353 -82.4082 177° South 471 542 38,000  Level FlightAware ADS-B (KMCO)
04:35PM 30.2053 -82.3996 177° South 473 544 38,000 -960 Level FlightAware ADS-B (KMCO)
04:36PM 30.1166 -82.3937 177° South 475 547 36,400 -2,400 Descending FlightAware ADS-B (KMCO)
04:37PM 29.9851 -82.3848 177° South 468 539 34,000 -2,340 Descending FlightAware ADS-B (KMCO)
04:38PM 29.8555 -82.3764 177° South 457 526 31,800 -2,220 Descending FlightAware ADS-B (KMCO)
04:39PM 29.7732 -82.3710 177° South 449 517 30,300 -2,280 Descending FlightAware ADS-B (KMCO)
04:39PM 29.6910 -82.3655 177° South 440 506 28,800 -2,100 Descending FlightAware ADS-B (KMCO)
04:41PM 29.5288 -82.3531 174° South 422 486 26,200 -1,440 Descending FlightAware ADS-B (KMCO)
04:41PM 29.4539 -82.3430 174° South 418 481 26,000 -420 Descending FlightAware ADS-B (KMCO)
04:42PM 29.3772 -82.3335 174° South 417 480 25,700 -1,800 Descending FlightAware ADS-B (KMCO)
04:43PM 29.2629 -82.3200 174° South 408 470 23,000 -3,660 Descending FlightAware ADS-B (KMCO)
04:45PM 29.0290 -82.2919 174° South 388 447 14,300 -3,480 Descending FlightAware ADS-B (KMCO)
04:46PM 28.9409 -82.2814 174° South 343 395 12,800 -540 Descending FlightAware ADS-B (KMCO)
04:48PM 28.7858 -82.2632 174° South 283 326 12,900 -180 Climbing FlightAware ADS-B (KMCO)
04:50PM 28.5827 -82.2747 191° South 282 325 12,000 -540 Descending FlightAware ADS-B (KMCO)
04:51PM 28.5276 -82.2872 191° South 291 335 11,300 -1,320 Descending FlightAware ADS-B (KMCO)
04:52PM 28.4900 -82.3027 238° Southwest 301 346 10,500 -1,140 Descending FlightAware ADS-B (KMCO)
04:52PM 28.4666 -82.3492 248° West 301 346 10,100 -720 Descending FlightAware ADS-B (KMCO)
04:53PM 28.4361 -82.4369 248° West 302 348 9,300 -960 Descending Miami Center
04:54PM 28.4317 -82.5300 267° West 302 348 8,100 -1,260 Descending Miami Center
04:55PM 28.4125 -82.6197 256° West 300 345 6,800 -1,260 Descending Miami Center
04:56PM 28.3636 -82.7000 235° Southwest 292 336 5,600 -1,020 Descending Miami Center
04:58PM 28.2917 -82.6989 179° South 267 307 4,800 -720 Descending Miami Center
04:59PM 28.2189 -82.6936 176° South 265 305 4,200 -720 Descending Miami Center
05:00PM 28.1333 -82.6833 174° South 262 302 3,400 -720 Descending Tampa TRACON
05:01PM 28.0833 -82.6667 164° South 222 255 2,800 -780 Descending Tampa TRACON
05:02PM 28.0167 -82.6667 180° South 177 204 1,900 -900 Descending Tampa TRACON
05:02PM 27.9833 -82.6667 180° South 135 155 1,200 -780 Descending Tampa TRACON
05:03PM 27.9500 -82.6833 204° Southwest 133 153 500 -720 Descending Tampa TRACON